createdAt,value
2019-03-03T00:01:15.882Z,5.27
2019-03-03T00:03:48.905Z,5.27
2019-03-03T00:06:21.854Z,5.25
2019-03-03T00:08:54.722Z,5.35
2019-03-03T00:11:27.696Z,5.33
2019-03-03T00:14:01.427Z,5.22
2019-03-03T00:16:34.344Z,5.17
2019-03-03T00:19:07.297Z,5.14
2019-03-03T00:21:40.304Z,5.19
2019-03-03T00:24:13.326Z,5.18
2019-03-03T00:26:46.261Z,5.22
2019-03-03T00:29:19.086Z,5.24
2019-03-03T00:31:51.974Z,5.23
2019-03-03T00:34:24.908Z,5.27
2019-03-03T00:37:19.851Z,5.21
2019-03-03T00:40:26.957Z,5.15
2019-03-03T00:43:07.397Z,5.23
2019-03-03T00:45:51.885Z,5.21
2019-03-03T00:48:52.851Z,5.31
2019-03-03T00:51:43.601Z,5.29
2019-03-03T00:54:35.279Z,5.35
2019-03-03T00:57:26.899Z,5.45
2019-03-03T01:00:06.958Z,5.41
2019-03-03T01:02:52.160Z,5.45
2019-03-03T01:05:46.425Z,5.56
2019-03-03T01:08:36.885Z,5.50
2019-03-03T01:11:43.932Z,5.47
2019-03-03T01:14:47.599Z,5.42
2019-03-03T01:17:51.523Z,5.28
2019-03-03T01:20:43.338Z,5.09
2019-03-03T01:23:44.052Z,4.97
2019-03-03T01:26:16.951Z,5.08
2019-03-03T01:28:49.055Z,5.01
2019-03-03T01:31:25.331Z,4.87
2019-03-03T01:33:58.187Z,5.02
2019-03-03T01:36:31.105Z,5.25
2019-03-03T01:39:05.285Z,5.45
2019-03-03T01:41:38.151Z,5.30
2019-03-03T01:44:11.001Z,5.34
2019-03-03T01:46:43.984Z,5.47
2019-03-03T01:49:16.924Z,5.56
2019-03-03T01:51:49.878Z,5.63
2019-03-03T01:54:22.731Z,5.83
2019-03-03T01:56:55.638Z,5.86
2019-03-03T01:59:28.502Z,5.90
2019-03-03T02:02:01.617Z,5.87
2019-03-03T02:04:34.595Z,5.86
2019-03-03T02:07:07.679Z,5.78
2019-03-03T02:09:40.654Z,5.68
2019-03-03T02:12:13.584Z,5.60
2019-03-03T02:14:46.473Z,5.33
2019-03-03T02:17:19.454Z,5.33
2019-03-03T02:19:52.295Z,5.11
2019-03-03T02:22:25.250Z,4.90
2019-03-03T02:24:58.166Z,4.77
2019-03-03T02:27:31.168Z,4.62
2019-03-03T02:30:05.596Z,4.47
2019-03-03T02:32:38.507Z,4.43
2019-03-03T02:35:11.674Z,4.33
2019-03-03T02:37:44.528Z,4.41
2019-03-03T02:40:18.443Z,4.28
2019-03-03T02:42:51.667Z,4.24
2019-03-03T02:45:24.965Z,4.09
2019-03-03T02:47:57.941Z,4.18
2019-03-03T02:50:30.873Z,4.12
2019-03-03T02:53:03.842Z,4.38
2019-03-03T02:55:36.897Z,4.33
2019-03-03T02:58:09.862Z,4.35
2019-03-03T03:00:51.878Z,4.10
2019-03-03T03:03:24.992Z,3.88
2019-03-03T03:06:16.680Z,3.96
2019-03-03T03:09:26.469Z,3.89
2019-03-03T03:12:18.268Z,3.80
2019-03-03T03:15:08.872Z,3.74
2019-03-03T03:18:00.999Z,3.52
2019-03-03T03:20:58.583Z,3.25
2019-03-03T03:23:53.418Z,3.15
2019-03-03T03:26:45.171Z,3.11
2019-03-03T03:29:36.874Z,3.24
2019-03-03T03:32:28.567Z,3.27
2019-03-03T03:35:23.246Z,3.29
2019-03-03T03:38:13.691Z,3.31
2019-03-03T03:41:23.929Z,3.22
2019-03-03T03:44:15.564Z,2.84
2019-03-03T03:47:07.278Z,2.72
2019-03-03T03:49:49.181Z,2.61
2019-03-03T03:52:31.909Z,2.43
2019-03-03T03:55:39.646Z,2.48
2019-03-03T03:58:46.617Z,2.67
2019-03-03T04:01:50.057Z,2.77
2019-03-03T04:04:33.710Z,2.94
2019-03-03T04:07:28.804Z,3.39
2019-03-03T04:10:06.418Z,3.46
2019-03-03T04:13:16.590Z,3.26
2019-03-03T04:16:11.200Z,3.14
2019-03-03T04:19:02.889Z,3.33
2019-03-03T04:21:45.020Z,3.67
2019-03-03T04:24:35.321Z,3.82
2019-03-03T04:27:33.373Z,3.88
2019-03-03T04:30:30.431Z,3.99
2019-03-03T04:33:24.605Z,4.17
2019-03-03T04:36:16.331Z,4.26
2019-03-03T04:39:06.570Z,4.42
2019-03-03T04:41:56.875Z,4.11
2019-03-03T04:44:47.280Z,4.01
2019-03-03T04:47:37.708Z,3.82
2019-03-03T04:50:19.475Z,3.57
2019-03-03T04:53:05.310Z,3.36
2019-03-03T04:55:50.654Z,3.27
2019-03-03T04:58:42.298Z,3.34
2019-03-03T05:01:25.350Z,3.37
2019-03-03T05:04:15.579Z,3.32
2019-03-03T05:07:05.849Z,3.27
2019-03-03T05:09:57.379Z,3.26
2019-03-03T05:12:57.502Z,2.92
2019-03-03T05:16:07.408Z,2.62
2019-03-03T05:18:48.557Z,2.61
2019-03-03T05:21:21.498Z,2.63
2019-03-03T05:23:54.457Z,2.65
2019-03-03T05:26:27.616Z,2.63
2019-03-03T05:29:00.498Z,2.59
2019-03-03T05:31:33.294Z,2.62
2019-03-03T05:34:06.136Z,2.53
2019-03-03T05:36:39.013Z,2.69
2019-03-03T05:39:11.930Z,2.91
2019-03-03T05:41:44.820Z,3.01
2019-03-03T05:44:17.732Z,2.85
2019-03-03T05:46:50.510Z,2.66
2019-03-03T05:49:23.520Z,2.38
2019-03-03T05:51:56.501Z,2.21
2019-03-03T05:54:29.451Z,2.14
2019-03-03T05:57:02.421Z,2.16
2019-03-03T05:59:35.415Z,2.22
2019-03-03T06:02:08.397Z,2.30
2019-03-03T06:04:40.634Z,2.53
2019-03-03T06:07:13.600Z,2.33
2019-03-03T06:09:46.706Z,1.97
2019-03-03T06:12:19.714Z,1.87
2019-03-03T06:14:52.762Z,1.86
2019-03-03T06:17:25.670Z,1.99
2019-03-03T06:19:58.805Z,2.17
2019-03-03T06:22:31.757Z,2.13
2019-03-03T06:25:05.006Z,2.13
2019-03-03T06:27:38.015Z,2.27
2019-03-03T06:30:13.345Z,2.20
2019-03-03T06:32:46.301Z,1.94
2019-03-03T06:35:19.281Z,2.04
2019-03-03T06:37:52.174Z,2.33
2019-03-03T06:40:25.144Z,2.59
2019-03-03T06:42:58.056Z,2.77
2019-03-03T06:45:30.977Z,2.79
2019-03-03T06:48:03.938Z,3.05
2019-03-03T06:50:36.805Z,3.22
2019-03-03T06:53:09.771Z,3.15
2019-03-03T06:55:42.714Z,3.00
2019-03-03T06:58:15.977Z,2.89
2019-03-03T07:00:48.851Z,2.78
2019-03-03T07:03:21.699Z,2.86
2019-03-03T07:05:54.540Z,2.96
2019-03-03T07:08:27.398Z,2.98
2019-03-03T07:11:00.246Z,2.98
2019-03-03T07:13:33.143Z,3.19
2019-03-03T07:16:06.339Z,3.37
2019-03-03T07:18:39.268Z,3.27
2019-03-03T07:21:12.370Z,3.46
2019-03-03T07:23:45.404Z,3.55
2019-03-03T07:26:18.442Z,3.72
2019-03-03T07:28:52.437Z,3.99
2019-03-03T07:31:25.295Z,4.25
2019-03-03T07:34:01.135Z,4.47
2019-03-03T07:36:33.962Z,4.75
2019-03-03T07:39:17.592Z,5.12
2019-03-03T07:41:50.591Z,5.40
2019-03-03T07:44:23.462Z,5.70
2019-03-03T07:46:56.307Z,6.05
2019-03-03T07:49:29.252Z,6.33
2019-03-03T07:52:02.127Z,6.61
2019-03-03T07:54:35.175Z,6.85
2019-03-03T07:57:08.119Z,6.99
2019-03-03T07:59:41.232Z,7.37
2019-03-03T08:02:14.182Z,7.69
2019-03-03T08:04:47.141Z,7.91
2019-03-03T08:07:20.045Z,8.35
2019-03-03T08:09:53.046Z,9.59
2019-03-03T08:12:26.458Z,10.57
2019-03-03T08:14:59.431Z,11.66
2019-03-03T08:17:32.380Z,12.29
2019-03-03T08:20:06.988Z,13.13
2019-03-03T08:22:42.022Z,13.54
2019-03-03T08:25:15.060Z,13.56
2019-03-03T08:27:47.962Z,13.27
2019-03-03T08:30:21.055Z,13.56
2019-03-03T08:32:54.013Z,14.08
2019-03-03T08:35:27.484Z,14.17
2019-03-03T08:38:00.456Z,14.80
2019-03-03T08:40:33.387Z,14.97
2019-03-03T08:43:25.492Z,15.67
2019-03-03T08:46:12.476Z,16.21
2019-03-03T08:49:13.205Z,15.98
2019-03-03T08:52:00.861Z,16.94
2019-03-03T08:54:51.296Z,15.80
2019-03-03T08:57:52.341Z,15.21
2019-03-03T09:00:44.725Z,15.33
2019-03-03T09:03:39.307Z,15.77
2019-03-03T09:06:42.969Z,15.96
2019-03-03T09:15:16.926Z,17.99
2019-03-03T09:18:08.760Z,17.81
2019-03-03T09:20:59.330Z,17.07
2019-03-03T09:23:41.783Z,16.93
2019-03-03T09:26:32.157Z,17.97
2019-03-03T09:29:18.266Z,17.51
2019-03-03T09:31:58.734Z,17.86
2019-03-03T09:35:00.276Z,16.83
2019-03-03T09:37:54.809Z,16.28
2019-03-03T09:40:36.757Z,15.35
2019-03-03T09:43:37.658Z,15.79
2019-03-03T09:46:16.778Z,15.46
2019-03-03T09:48:58.736Z,16.44
2019-03-03T09:51:50.654Z,17.39
2019-03-03T09:54:51.766Z,17.28
2019-03-03T09:57:41.609Z,17.39
2019-03-03T10:00:34.596Z,17.76
2019-03-03T10:03:35.538Z,18.19
2019-03-03T10:06:26.001Z,17.40
2019-03-03T10:09:16.870Z,17.37
2019-03-03T10:12:04.391Z,17.27
2019-03-03T10:14:43.270Z,17.86
2019-03-03T10:17:41.176Z,17.98
2019-03-03T10:20:39.713Z,16.94
2019-03-03T10:23:30.360Z,15.31
2019-03-03T10:26:20.907Z,15.57
2019-03-03T10:29:11.453Z,15.13
2019-03-03T10:32:04.770Z,15.15
2019-03-03T10:35:14.560Z,15.86
2019-03-03T10:38:21.354Z,15.59
2019-03-03T10:41:18.979Z,15.61
2019-03-03T10:44:13.572Z,15.06
2019-03-03T10:46:54.206Z,14.52
2019-03-03T10:49:34.875Z,14.87
2019-03-03T10:52:12.885Z,15.94
2019-03-03T10:55:13.726Z,16.50
2019-03-03T10:58:01.530Z,15.74
2019-03-03T11:00:50.816Z,16.07
2019-03-03T11:03:54.802Z,15.93
2019-03-03T11:06:43.993Z,16.31
2019-03-03T11:09:42.739Z,16.32
2019-03-03T11:12:43.989Z,15.78
2019-03-03T11:15:36.015Z,15.92
2019-03-03T11:18:39.090Z,16.45
2019-03-03T11:21:29.277Z,16.59
2019-03-03T11:24:21.086Z,16.35
2019-03-03T11:27:16.078Z,16.28
2019-03-03T11:30:17.907Z,16.92
2019-03-03T11:33:09.742Z,17.59
2019-03-03T11:36:07.898Z,17.11
2019-03-03T11:38:59.702Z,16.03
2019-03-03T11:41:51.537Z,16.02
2019-03-03T11:44:58.346Z,14.74
2019-03-03T11:47:51.621Z,14.46
2019-03-03T11:50:46.426Z,15.50
2019-03-03T11:53:38.157Z,15.70
2019-03-03T11:56:28.499Z,15.68
2019-03-03T11:59:26.041Z,15.70
2019-03-03T12:02:16.410Z,16.73
2019-03-03T12:05:20.598Z,16.89
2019-03-03T12:08:21.595Z,16.85
2019-03-03T12:14:29.237Z,16.64
2019-03-03T12:17:21.125Z,15.99
2019-03-03T12:20:19.002Z,15.76
2019-03-03T12:23:10.814Z,16.10
2019-03-03T12:26:05.565Z,16.66
2019-03-03T12:29:03.237Z,16.27
2019-03-03T12:31:46.403Z,16.86
2019-03-03T12:34:47.495Z,16.52
2019-03-03T12:37:34.754Z,17.31
2019-03-03T12:40:26.979Z,17.40
2019-03-03T12:43:17.628Z,17.32
2019-03-03T12:46:12.445Z,17.07
2019-03-03T12:48:55.321Z,16.00
2019-03-03T12:51:43.148Z,15.86
2019-03-03T12:54:38.036Z,15.79
2019-03-03T12:57:22.241Z,15.25
2019-03-03T13:00:19.763Z,15.07
2019-03-03T13:03:26.573Z,14.92
2019-03-03T13:06:08.826Z,15.03
2019-03-03T13:09:07.686Z,14.78
2019-03-03T13:11:59.436Z,14.68
2019-03-03T13:14:50.277Z,14.69
2019-03-03T13:17:48.114Z,15.01
2019-03-03T13:20:27.408Z,15.50
2019-03-03T13:23:08.679Z,15.60
2019-03-03T13:26:13.638Z,16.56
2019-03-03T13:29:14.618Z,16.95
2019-03-03T13:32:12.270Z,17.77
2019-03-03T13:35:02.822Z,17.41
2019-03-03T13:38:03.809Z,17.56
2019-03-03T13:40:56.513Z,16.16
2019-03-03T13:43:31.703Z,16.08
2019-03-03T13:46:05.004Z,15.49
2019-03-03T13:48:37.968Z,16.07
2019-03-03T13:51:11.143Z,16.84
2019-03-03T13:53:44.090Z,18.00
2019-03-03T13:56:17.161Z,19.63
2019-03-03T13:58:50.282Z,20.87
2019-03-03T14:01:23.286Z,20.81
2019-03-03T14:03:56.367Z,21.30
2019-03-03T14:06:29.481Z,21.28
2019-03-03T14:09:02.514Z,19.96
2019-03-03T14:11:35.452Z,19.38
2019-03-03T14:14:10.861Z,19.31
2019-03-03T14:16:43.825Z,17.88
2019-03-03T14:19:17.796Z,18.39
2019-03-03T14:21:50.910Z,18.33
2019-03-03T14:24:23.880Z,18.18
2019-03-03T14:26:56.953Z,18.51
2019-03-03T14:29:30.030Z,18.83
2019-03-03T14:32:03.075Z,18.27
2019-03-03T14:34:35.868Z,18.28
2019-03-03T14:37:09.441Z,18.43
2019-03-03T14:39:42.480Z,18.58
2019-03-03T14:42:15.464Z,18.31
2019-03-03T14:44:48.488Z,17.46
2019-03-03T14:47:21.522Z,16.98
2019-03-03T14:49:54.563Z,16.64
2019-03-03T14:52:27.647Z,16.30
2019-03-03T14:55:00.546Z,15.53
2019-03-03T14:57:33.528Z,15.25
2019-03-03T15:00:16.192Z,14.76
2019-03-03T15:02:48.667Z,14.67
2019-03-03T15:05:21.827Z,14.33
2019-03-03T15:07:54.998Z,14.00
2019-03-03T15:10:28.179Z,13.89
2019-03-03T15:13:00.788Z,13.95
2019-03-03T15:15:34.956Z,13.83
2019-03-03T15:18:08.339Z,13.82
2019-03-03T15:20:41.324Z,13.83
2019-03-03T15:23:14.508Z,13.93
2019-03-03T15:25:47.673Z,13.88
2019-03-03T15:28:20.787Z,13.81
2019-03-03T15:30:53.818Z,13.80
2019-03-03T15:33:26.872Z,13.84
2019-03-03T15:36:01.152Z,13.94
2019-03-03T15:38:34.074Z,13.76
2019-03-03T15:41:07.006Z,13.69
2019-03-03T15:43:40.071Z,13.63
2019-03-03T15:46:13.107Z,13.45
2019-03-03T15:48:46.026Z,13.37
2019-03-03T15:51:19.060Z,13.42
2019-03-03T15:53:52.322Z,13.35
2019-03-03T15:56:25.373Z,13.29
2019-03-03T15:58:58.407Z,13.29
2019-03-03T16:01:31.526Z,13.27
2019-03-03T16:04:04.459Z,13.27
2019-03-03T16:06:37.552Z,13.29
2019-03-03T16:09:16.982Z,13.22
2019-03-03T16:11:49.853Z,13.27
2019-03-03T16:14:22.641Z,13.25
2019-03-03T16:16:55.731Z,13.18
2019-03-03T16:19:28.807Z,13.11
2019-03-03T16:22:01.741Z,13.08
2019-03-03T16:24:34.829Z,13.09
2019-03-03T16:27:07.837Z,13.08
2019-03-03T16:29:40.953Z,13.08
2019-03-03T16:32:14.002Z,13.09
2019-03-03T16:34:47.178Z,13.21
2019-03-03T16:37:20.292Z,13.08
2019-03-03T16:39:53.443Z,12.98
2019-03-03T16:42:26.532Z,12.93
2019-03-03T16:44:59.588Z,12.68
2019-03-03T16:47:32.780Z,12.52
2019-03-03T16:50:06.278Z,12.28
2019-03-03T16:52:39.306Z,12.03
2019-03-03T16:55:12.879Z,11.69
2019-03-03T16:57:45.979Z,11.29
2019-03-03T17:00:21.347Z,10.98
2019-03-03T17:02:54.513Z,10.79
2019-03-03T17:05:27.695Z,10.65
2019-03-03T17:08:00.820Z,10.65
2019-03-03T17:10:33.992Z,10.50
2019-03-03T17:13:07.032Z,10.20
2019-03-03T17:15:40.111Z,9.91
2019-03-03T17:18:13.270Z,9.49
2019-03-03T17:20:46.332Z,9.05
2019-03-03T17:23:19.452Z,8.83
2019-03-03T17:25:52.619Z,8.65
2019-03-03T17:28:25.753Z,8.75
2019-03-03T17:30:58.781Z,8.53
2019-03-03T17:33:31.839Z,8.35
2019-03-03T17:36:04.832Z,8.12
2019-03-03T17:38:38.429Z,8.01
2019-03-03T17:41:13.599Z,7.78
2019-03-03T17:43:48.566Z,7.65
2019-03-03T17:46:21.174Z,7.51
2019-03-03T17:48:54.027Z,7.44
2019-03-03T17:51:26.974Z,7.23
2019-03-03T17:53:59.886Z,6.97
2019-03-03T17:56:32.823Z,6.90
2019-03-03T17:59:05.880Z,6.66
2019-03-03T18:01:38.757Z,6.69
2019-03-03T18:04:11.843Z,7.31
2019-03-03T18:06:44.738Z,7.15
2019-03-03T18:09:17.811Z,6.71
2019-03-03T18:11:50.717Z,6.60
2019-03-03T18:14:23.786Z,6.85
2019-03-03T18:16:56.785Z,6.69
2019-03-03T18:19:29.847Z,6.24
2019-03-03T18:22:02.813Z,6.03
2019-03-03T18:24:35.695Z,5.95
2019-03-03T18:27:08.339Z,5.81
2019-03-03T18:29:41.327Z,5.72
2019-03-03T18:32:14.369Z,5.73
2019-03-03T18:34:47.342Z,5.78
2019-03-03T18:37:20.251Z,6.05
2019-03-03T18:39:53.335Z,6.00
2019-03-03T18:42:26.396Z,6.09
2019-03-03T18:45:00.330Z,6.16
2019-03-03T18:47:33.238Z,6.07
2019-03-03T18:50:08.429Z,6.03
2019-03-03T18:52:41.433Z,6.25
2019-03-03T18:55:14.501Z,6.56
2019-03-03T18:57:47.551Z,6.69
2019-03-03T19:00:23.793Z,6.79
2019-03-03T19:02:58.262Z,6.70
2019-03-03T19:05:31.632Z,6.97
2019-03-03T19:08:04.720Z,7.13
2019-03-03T19:10:37.605Z,7.33
2019-03-03T19:13:10.588Z,7.55
2019-03-03T19:15:43.515Z,7.21
2019-03-03T19:18:16.573Z,7.33
2019-03-03T19:20:49.635Z,7.43
2019-03-03T19:23:22.493Z,7.69
2019-03-03T19:25:55.604Z,7.84
2019-03-03T19:28:28.517Z,8.04
2019-03-03T19:31:01.971Z,8.04
2019-03-03T19:33:49.144Z,8.29
2019-03-03T19:36:22.105Z,8.37
2019-03-03T19:38:55.128Z,8.68
2019-03-03T19:41:28.144Z,9.21
2019-03-03T19:44:01.197Z,9.12
2019-03-03T19:46:34.364Z,9.03
2019-03-03T19:49:07.527Z,9.11
2019-03-03T19:51:40.824Z,9.63
2019-03-03T19:54:13.964Z,9.58
2019-03-03T19:56:47.013Z,9.57
2019-03-03T19:59:20.129Z,9.67
2019-03-03T20:01:55.864Z,9.67
2019-03-03T20:04:28.912Z,9.65
2019-03-03T20:07:01.834Z,9.57
2019-03-03T20:09:34.843Z,9.48
2019-03-03T20:12:08.998Z,9.26
2019-03-03T20:14:41.901Z,9.36
2019-03-03T20:17:14.904Z,9.35
2019-03-03T20:19:47.814Z,9.25
2019-03-03T20:22:20.961Z,9.53
2019-03-03T20:24:54.016Z,10.13
2019-03-03T20:27:27.138Z,10.36
2019-03-03T20:30:00.402Z,10.37
2019-03-03T20:32:33.397Z,10.46
2019-03-03T20:35:06.726Z,10.31
2019-03-03T20:37:39.794Z,10.41
2019-03-03T20:40:15.058Z,10.34
2019-03-03T20:42:48.301Z,10.22
2019-03-03T20:45:23.483Z,10.31
2019-03-03T20:47:56.694Z,10.53
2019-03-03T20:50:29.939Z,10.73
2019-03-03T20:53:02.979Z,11.35
2019-03-03T20:55:36.043Z,11.15
2019-03-03T20:58:09.182Z,11.37
2019-03-03T21:00:42.196Z,11.22
2019-03-03T21:03:15.181Z,11.25
2019-03-03T21:05:48.109Z,11.31
2019-03-03T21:08:21.176Z,11.20
2019-03-03T21:10:54.092Z,11.06
2019-03-03T21:13:27.085Z,10.98
2019-03-03T21:16:00.248Z,10.95
2019-03-03T21:18:33.316Z,10.94
2019-03-03T21:21:06.222Z,10.92
2019-03-03T21:23:39.213Z,10.80
2019-03-03T21:26:12.229Z,10.80
2019-03-03T21:28:45.284Z,10.68
2019-03-03T21:31:18.595Z,10.52
2019-03-03T21:33:52.274Z,10.68
2019-03-03T21:36:25.229Z,11.19
2019-03-03T21:38:57.625Z,11.38
2019-03-03T21:41:30.638Z,11.07
2019-03-03T21:44:04.250Z,11.05
2019-03-03T21:46:37.203Z,11.23
2019-03-03T21:49:10.397Z,12.01
2019-03-03T21:51:45.402Z,12.18
2019-03-03T21:54:18.540Z,12.41
2019-03-03T21:56:51.611Z,12.64
2019-03-03T21:59:24.681Z,12.97
2019-03-03T22:01:57.702Z,12.85
2019-03-03T22:04:30.758Z,13.41
2019-03-03T22:07:02.879Z,13.71
2019-03-03T22:09:36.027Z,13.88
2019-03-03T22:12:08.990Z,13.89
2019-03-03T22:14:42.090Z,13.89
2019-03-03T22:17:15.483Z,13.77
2019-03-03T22:19:48.506Z,13.91
2019-03-03T22:22:21.436Z,13.79
2019-03-03T22:24:54.504Z,14.28
2019-03-03T22:27:30.611Z,14.25
2019-03-03T22:30:03.795Z,14.19
2019-03-03T22:32:36.656Z,14.30
2019-03-03T22:35:09.978Z,14.46
2019-03-03T22:37:42.966Z,14.43
2019-03-03T22:40:16.160Z,14.44
2019-03-03T22:42:49.186Z,14.47
2019-03-03T22:45:23.525Z,14.39
2019-03-03T22:47:56.586Z,14.03
2019-03-03T22:50:29.610Z,13.75
2019-03-03T22:53:02.687Z,13.57
2019-03-03T22:55:40.564Z,13.86
2019-03-03T22:58:13.779Z,14.15
2019-03-03T23:01:34.416Z,13.82
2019-03-03T23:04:46.482Z,13.78
2019-03-03T23:08:23.318Z,13.62
2019-03-03T23:11:39.804Z,13.70
2019-03-03T23:14:46.107Z,13.68
2019-03-03T23:18:25.513Z,13.64
2019-03-03T23:21:40.673Z,13.95
2019-03-03T23:24:41.816Z,13.73
2019-03-03T23:27:14.818Z,13.94
2019-03-03T23:29:47.802Z,14.24
2019-03-03T23:32:20.691Z,14.21
2019-03-03T23:34:53.639Z,14.37
2019-03-03T23:37:26.561Z,14.65
2019-03-03T23:39:59.531Z,14.76
2019-03-03T23:42:32.515Z,14.57
2019-03-03T23:45:06.489Z,14.80
2019-03-03T23:47:39.523Z,14.67
2019-03-03T23:50:12.837Z,14.65
2019-03-03T23:52:45.915Z,14.73
2019-03-03T23:55:18.892Z,14.95
2019-03-03T23:57:51.811Z,14.97
